Date,TemperatureHighF,TemperatureAvgF,TemperatureLowF,DewpointHighF,DewpointAvgF,DewpointLowF,HumidityHigh,HumidityAvg,HumidityLow,PressureMaxIn,PressureMinIn,WindSpeedMaxMPH,WindSpeedAvgMPH,GustSpeedMaxMPH,PrecipitationSumIn
2013-1-1,50,48,45,49,42,30,99,84,51,30.16,29.94,2,0,6,0.53
2013-1-2,53,49,46,49,46,41,99,87,67,30.13,29.90,3,1,9,0.31
2013-1-3,46,43,36,44,40,26,96,89,59,30.29,30.09,7,2,14,0.01
2013-1-4,52,39,26,31,26,20,92,62,40,30.37,30.25,6,1,14,0.00
2013-1-5,48,38,27,37,26,23,87,64,41,30.41,30.26,3,1,7,0.01
2013-1-6,56,45,40,44,39,31,92,80,64,30.25,30.05,4,1,10,0.03
2013-1-7,53,41,31,32,30,28,89,67,39,30.42,30.22,5,1,10,0.00
2013-1-8,52,42,29,42,35,27,93,76,61,30.47,30.37,5,1,9,0.00
2013-1-9,64,55,48,56,49,40,92,79,69,30.45,30.37,3,0,6,0.00
2013-1-10,67,57,47,55,51,46,98,82,63,30.47,30.32,6,2,13,0.03
2013-1-11,57,52,50,55,51,49,99,97,92,30.33,30.15,7,2,13,0.36
2013-1-12,74,60,52,66,58,52,100,92,65,30.17,30.08,5,1,11,0.09
2013-1-13,69,60,55,64,59,54,99,94,80,30.12,30.04,4,0,10,0.01
2013-1-14,66,62,57,65,62,56,99,97,94,30.10,30.03,5,1,10,0.43
2013-1-15,62,53,45,61,52,44,98,97,96,30.11,30.03,8,2,16,0.30
2013-1-16,52,48,45,51,47,44,98,98,97,30.04,29.96,7,2,11,0.41
2013-1-17,53,48,39,53,48,37,99,97,93,30.19,29.72,18,5,31,1.93
2013-1-18,53,41,34,37,28,22,96,64,30,30.51,30.19,7,2,16,0.36
2013-1-19,54,39,28,33,29,25,94,70,33,30.50,30.21,5,1,10,0.00
2013-1-20,66,47,34,39,33,29,84,63,34,30.21,30.03,4,1,10,0.00
2013-1-21,63,45,31,37,29,18,92,59,29,30.09,29.96,4,1,16,0.00
2013-1-22,48,37,29,22,17,12,65,44,25,30.27,30.03,6,2,10,0.00
2013-1-23,53,37,24,30,22,13,80,58,35,30.36,30.11,5,1,12,0.00
2013-1-24,50,43,30,37,22,5,79,48,20,30.48,30.02,11,4,18,0.00
2013-1-25,30,28,26,27,17,8,93,68,41,30.51,30.14,4,1,9,0.00
2013-1-26,53,37,28,39,32,27,98,83,46,30.35,30.13,2,0,5,0.08
2013-1-27,45,39,32,33,31,28,89,74,60,30.56,30.35,7,3,14,0.01
2013-1-28,53,46,42,46,38,31,95,74,62,30.47,30.27,4,1,9,0.00
2013-1-29,69,56,41,60,52,40,98,89,71,30.27,30.00,6,1,13,0.00
2013-1-30,69,63,47,64,59,45,97,89,80,30.01,29.45,11,5,25,1.84
2013-1-31,53,45,39,45,27,22,94,52,32,30.08,29.58,5,2,15,1.79